Wetterdaten: Woche 29.07.13 - 04.08.13 (KW31)
Datum Zeit Temp. Aussen +5cm Feuchte Auss Luftdruck Regen Sonnenschein Regendauer UV Solar Windben
29.07.2013 00:00 17,1 C 15,7 C 94 % 1013,5 hPa 0,0 l/m 0,00 h 0,00 h 0,0 UV-I 0 W/m 0,0 km/h (0 Bft)
29.07.2013 01:00 16,9 C 15,7 C 95 % 1013,4 hPa 0,0 l/m 0,00 h 0,00 h 0,0 UV-I 0 W/m 0,0 km/h (0 Bft)
29.07.2013 02:00 17,0 C 15,7 C 95 % 1013,5 hPa 0,0 l/m 0,00 h 0,00 h 0,0 UV-I 0 W/m 0,0 km/h (0 Bft)
29.07.2013 03:00 17,2 C 15,7 C 95 % 1013,6 hPa 0,0 l/m 0,00 h 0,00 h 0,0 UV-I 0 W/m 0,0 km/h (0 Bft)
29.07.2013 04:00 17,8 C 16,2 C 94 % 1013,6 hPa 0,0 l/m 0,00 h 0,00 h 0,0 UV-I 0 W/m 0,0 km/h (0 Bft)
29.07.2013 05:00 17,5 C 16,0 C 94 % 1013,7 hPa 0,0 l/m 0,00 h 0,00 h 0,0 UV-I 0 W/m 0,0 km/h (0 Bft)
29.07.2013 06:00 16,6 C 15,7 C 96 % 1013,5 hPa 0,0 l/m 0,00 h 0,00 h 0,0 UV-I 21 W/m 0,0 km/h (0 Bft)
29.07.2013 07:00 17,5 C 17,2 C 96 % 1013,6 hPa 0,0 l/m 0,00 h 0,00 h 0,0 UV-I 74 W/m 0,4 km/h (0 Bft)
29.07.2013 08:00 18,8 C 18,5 C 93 % 1013,7 hPa 0,0 l/m 0,00 h 0,00 h 0,0 UV-I 107 W/m 2,4 km/h (1 Bft)
29.07.2013 09:00 20,8 C 20,3 C 87 % 1013,7 hPa 0,0 l/m 0,60 h 0,00 h 1,0 UV-I 334 W/m 3,3 km/h (1 Bft)
29.07.2013 10:00 22,2 C 23,1 C 80 % 1013,7 hPa 0,0 l/m 0,27 h 0,00 h 1,4 UV-I 325 W/m 6,0 km/h (2 Bft)
29.07.2013 11:00 23,4 C 24,9 C 74 % 1014,1 hPa 0,0 l/m 0,23 h 0,00 h 2,1 UV-I 436 W/m 5,9 km/h (2 Bft)
29.07.2013 12:00 24,5 C 26,8 C 67 % 1014,1 hPa 0,0 l/m 0,77 h 0,00 h 3,2 UV-I 576 W/m 10,4 km/h (2 Bft)
29.07.2013 13:00 24,7 C 25,9 C 65 % 1014,0 hPa 0,0 l/m 0,63 h 0,00 h 2,5 UV-I 458 W/m 10,3 km/h (2 Bft)
29.07.2013 14:00 24,6 C 25,7 C 63 % 1013,8 hPa 0,0 l/m 0,88 h 0,00 h 2,7 UV-I 480 W/m 14,3 km/h (3 Bft)
29.07.2013 15:00 24,7 C 25,6 C 62 % 1013,9 hPa 0,0 l/m 0,50 h 0,00 h 2,3 UV-I 425 W/m 13,1 km/h (3 Bft)
29.07.2013 16:00 24,9 C 25,6 C 60 % 1013,9 hPa 0,0 l/m 0,90 h 0,00 h 2,0 UV-I 454 W/m 16,2 km/h (3 Bft)
29.07.2013 17:00 24,7 C 25,0 C 61 % 1014,0 hPa 0,0 l/m 0,70 h 0,00 h 1,1 UV-I 336 W/m 11,2 km/h (2 Bft)
29.07.2013 18:00 24,0 C 23,4 C 62 % 1014,4 hPa 0,0 l/m 0,17 h 0,00 h 0,6 UV-I 185 W/m 8,6 km/h (2 Bft)
29.07.2013 19:00 23,7 C 22,7 C 64 % 1014,9 hPa 0,0 l/m 0,00 h 0,00 h 0,0 UV-I 100 W/m 4,9 km/h (1 Bft)
29.07.2013 20:00 23,1 C 21,9 C 63 % 1015,6 hPa 0,0 l/m 0,03 h 0,00 h 0,0 UV-I 49 W/m 5,7 km/h (1 Bft)
29.07.2013 21:00 21,7 C 20,0 C 66 % 1015,9 hPa 0,0 l/m 0,03 h 0,00 h 0,0 UV-I 9 W/m 1,3 km/h (1 Bft)
29.07.2013 22:00 19,6 C 17,6 C 75 % 1016,2 hPa 0,0 l/m 0,00 h 0,00 h 0,0 UV-I 0 W/m 0,0 km/h (0 Bft)
29.07.2013 23:00 18,5 C 16,9 C 80 % 1016,5 hPa 0,0 l/m 0,00 h 0,00 h 0,0 UV-I 0 W/m 0,1 km/h (0 Bft)
30.07.2013 00:00 18,7 C 17,6 C 80 % 1016,9 hPa 0,0 l/m 0,00 h 0,00 h 0,0 UV-I 0 W/m 7,5 km/h (2 Bft)
30.07.2013 01:00 17,9 C 16,3 C 79 % 1016,7 hPa 0,0 l/m 0,00 h 0,00 h 0,0 UV-I 0 W/m 6,1 km/h (2 Bft)
30.07.2013 02:00 16,2 C 15,3 C 87 % 1017,1 hPa 0,0 l/m 0,00 h 0,00 h 0,0 UV-I 0 W/m 1,5 km/h (1 Bft)
30.07.2013 03:00 16,0 C 15,1 C 89 % 1017,3 hPa 0,0 l/m 0,00 h 0,00 h 0,0 UV-I 0 W/m 0,5 km/h (0 Bft)
30.07.2013 04:00 16,2 C 15,5 C 88 % 1017,2 hPa 0,0 l/m 0,00 h 0,00 h 0,0 UV-I 0 W/m 8,6 km/h (2 Bft)
30.07.2013 05:00 15,7 C 14,8 C 91 % 1017,3 hPa 0,0 l/m 0,00 h 0,00 h 0,0 UV-I 5 W/m 7,4 km/h (2 Bft)
30.07.2013 06:00 15,3 C 14,6 C 94 % 1017,7 hPa 0,0 l/m 0,00 h 0,00 h 0,0 UV-I 23 W/m 6,2 km/h (2 Bft)
30.07.2013 07:00 16,0 C 15,2 C 90 % 1017,8 hPa 0,0 l/m 0,00 h 0,00 h 0,0 UV-I 42 W/m 8,4 km/h (2 Bft)
30.07.2013 08:00 17,1 C 16,1 C 84 % 1018,0 hPa 0,0 l/m 0,73 h 0,00 h 0,5 UV-I 262 W/m 8,9 km/h (2 Bft)
30.07.2013 09:00 19,0 C 18,1 C 76 % 1018,0 hPa 0,0 l/m 0,93 h 0,00 h 1,1 UV-I 440 W/m 15,6 km/h (3 Bft)
30.07.2013 10:00 20,7 C 24,5 C 71 % 1017,9 hPa 0,0 l/m 0,87 h 0,00 h 2,2 UV-I 544 W/m 14,7 km/h (3 Bft)
30.07.2013 11:00 21,7 C 23,9 C 69 % 1018,0 hPa 0,0 l/m 0,73 h 0,00 h 2,7 UV-I 520 W/m 12,8 km/h (3 Bft)
30.07.2013 12:00 21,8 C 23,2 C 68 % 1017,9 hPa 0,0 l/m 0,33 h 0,00 h 2,4 UV-I 415 W/m 12,9 km/h (3 Bft)
30.07.2013 13:00 22,7 C 23,9 C 66 % 1017,5 hPa 0,0 l/m 0,53 h 0,00 h 2,6 UV-I 489 W/m 13,0 km/h (3 Bft)
30.07.2013 14:00 22,7 C 23,2 C 65 % 1017,1 hPa 0,0 l/m 0,17 h 0,00 h 1,9 UV-I 353 W/m 11,7 km/h (2 Bft)
30.07.2013 15:00 22,5 C 22,6 C 67 % 1016,7 hPa 0,0 l/m 0,00 h 0,00 h 1,3 UV-I 243 W/m 9,6 km/h (2 Bft)
30.07.2013 16:00 21,7 C 21,7 C 71 % 1016,8 hPa 0,0 l/m 0,07 h 0,00 h 1,3 UV-I 287 W/m 16,0 km/h (3 Bft)
30.07.2013 17:00 21,2 C 21,3 C 67 % 1016,8 hPa 0,0 l/m 0,07 h 0,00 h 0,7 UV-I 230 W/m 16,6 km/h (3 Bft)
30.07.2013 18:00 20,7 C 20,4 C 68 % 1016,3 hPa 0,0 l/m 0,00 h 0,00 h 0,0 UV-I 112 W/m 10,7 km/h (2 Bft)
30.07.2013 19:00 20,3 C 19,5 C 74 % 1015,6 hPa 0,0 l/m 0,00 h 0,00 h 0,0 UV-I 45 W/m 10,6 km/h (2 Bft)
30.07.2013 20:00 18,8 C 17,1 C 84 % 1015,1 hPa 0,0 l/m 0,00 h 0,55 h 0,0 UV-I 22 W/m 5,9 km/h (2 Bft)
30.07.2013 21:00 17,9 C 16,0 C 91 % 1014,8 hPa 0,6 l/m 0,00 h 0,40 h 0,0 UV-I 5 W/m 9,6 km/h (2 Bft)
30.07.2013 22:00 17,4 C 16,0 C 96 % 1014,6 hPa 0,2 l/m 0,00 h 0,27 h 0,0 UV-I 0 W/m 9,9 km/h (2 Bft)
30.07.2013 23:00 17,6 C 16,2 C 97 % 1014,4 hPa 0,0 l/m 0,00 h 0,00 h 0,0 UV-I 0 W/m 12,6 km/h (3 Bft)
31.07.2013 00:00 18,1 C 16,7 C 96 % 1014,2 hPa 0,0 l/m 0,00 h 0,00 h 0,0 UV-I 0 W/m 8,8 km/h (2 Bft)
31.07.2013 01:00 18,3 C 16,8 C 96 % 1014,1 hPa 0,0 l/m 0,00 h 0,00 h 0,0 UV-I 0 W/m 11,2 km/h (2 Bft)
31.07.2013 02:00 18,7 C 16,8 C 93 % 1014,3 hPa 0,0 l/m 0,00 h 0,00 h 0,0 UV-I 0 W/m 14,2 km/h (3 Bft)
31.07.2013 03:00 18,8 C 16,8 C 91 % 1014,5 hPa 0,0 l/m 0,00 h 0,00 h 0,0 UV-I 0 W/m 11,4 km/h (2 Bft)
31.07.2013 04:00 18,7 C 16,7 C 91 % 1014,7 hPa 0,2 l/m 0,00 h 0,10 h 0,0 UV-I 0 W/m 10,6 km/h (2 Bft)
31.07.2013 05:00 17,7 C 15,9 C 94 % 1015,2 hPa 7,2 l/m 0,00 h 0,97 h 0,0 UV-I 0 W/m 7,0 km/h (2 Bft)
31.07.2013 06:00 17,3 C 16,1 C 97 % 1015,7 hPa 6,0 l/m 0,00 h 0,97 h 0,0 UV-I 14 W/m 3,5 km/h (1 Bft)
31.07.2013 07:00 17,2 C 16,0 C 98 % 1016,1 hPa 2,8 l/m 0,00 h 0,97 h 0,0 UV-I 43 W/m 2,8 km/h (1 Bft)
31.07.2013 08:00 17,5 C 16,5 C 98 % 1016,7 hPa 0,0 l/m 0,00 h 0,50 h 0,0 UV-I 100 W/m 8,2 km/h (2 Bft)
31.07.2013 09:00 18,2 C 17,3 C 95 % 1017,1 hPa 0,0 l/m 0,10 h 0,00 h 1,1 UV-I 220 W/m 10,9 km/h (2 Bft)
31.07.2013 10:00 20,2 C 23,4 C 86 % 1017,5 hPa 0,0 l/m 0,73 h 0,00 h 2,2 UV-I 533 W/m 12,4 km/h (3 Bft)
31.07.2013 11:00 21,4 C 23,3 C 78 % 1017,9 hPa 0,0 l/m 0,53 h 0,00 h 3,1 UV-I 537 W/m 15,1 km/h (3 Bft)
31.07.2013 12:00 21,2 C 21,3 C 77 % 1018,2 hPa 0,0 l/m 0,00 h 0,00 h 1,3 UV-I 217 W/m 13,5 km/h (3 Bft)
31.07.2013 13:00 22,2 C 23,0 C 73 % 1018,3 hPa 0,0 l/m 0,57 h 0,00 h 2,9 UV-I 611 W/m 15,3 km/h (3 Bft)
31.07.2013 14:00 21,8 C 22,0 C 75 % 1018,5 hPa 0,0 l/m 0,07 h 0,00 h 1,5 UV-I 233 W/m 12,2 km/h (3 Bft)
31.07.2013 15:00 23,4 C 25,0 C 69 % 1018,6 hPa 0,0 l/m 0,53 h 0,03 h 3,6 UV-I 606 W/m 13,7 km/h (3 Bft)
31.07.2013 16:00 24,5 C 25,0 C 66 % 1018,3 hPa 0,0 l/m 0,80 h 0,00 h 3,0 UV-I 590 W/m 11,3 km/h (2 Bft)
31.07.2013 17:00 24,8 C 23,7 C 65 % 1018,0 hPa 0,0 l/m 0,90 h 0,00 h 1,9 UV-I 530 W/m 10,2 km/h (2 Bft)
31.07.2013 18:00 24,2 C 22,8 C 66 % 1017,8 hPa 0,0 l/m 0,17 h 0,00 h 0,8 UV-I 176 W/m 7,0 km/h (2 Bft)
31.07.2013 19:00 23,5 C 21,8 C 68 % 1017,7 hPa 0,0 l/m 0,00 h 0,00 h 0,0 UV-I 49 W/m 5,9 km/h (2 Bft)
31.07.2013 20:00 22,5 C 20,6 C 71 % 1017,7 hPa 0,0 l/m 0,00 h 0,00 h 0,0 UV-I 20 W/m 2,4 km/h (1 Bft)
31.07.2013 21:00 20,9 C 18,3 C 78 % 1017,8 hPa 0,0 l/m 0,00 h 0,00 h 0,0 UV-I 7 W/m 0,0 km/h (0 Bft)
31.07.2013 22:00 19,0 C 16,8 C 86 % 1017,9 hPa 0,0 l/m 0,00 h 0,00 h 0,0 UV-I 0 W/m 0,1 km/h (0 Bft)
31.07.2013 23:00 18,3 C 16,1 C 88 % 1017,9 hPa 0,0 l/m 0,00 h 0,00 h 0,0 UV-I 0 W/m 0,0 km/h (0 Bft)
01.08.2013 00:00 17,8 C 15,0 C 90 % 1017,8 hPa 0,0 l/m 0,00 h 0,00 h 0,0 UV-I 0 W/m 0,0 km/h (0 Bft)
01.08.2013 01:00 18,2 C 15,8 C 88 % 1017,6 hPa 0,0 l/m 0,00 h 0,00 h 0,0 UV-I 0 W/m 0,0 km/h (0 Bft)
01.08.2013 02:00 17,7 C 14,9 C 89 % 1017,4 hPa 0,0 l/m 0,00 h 0,00 h 0,0 UV-I 0 W/m 0,0 km/h (0 Bft)
01.08.2013 03:00 17,2 C 14,6 C 90 % 1017,1 hPa 0,0 l/m 0,00 h 0,00 h 0,0 UV-I 0 W/m 0,0 km/h (0 Bft)
01.08.2013 04:00 16,5 C 14,0 C 91 % 1016,8 hPa 0,0 l/m 0,00 h 0,00 h 0,0 UV-I 0 W/m 0,0 km/h (0 Bft)
01.08.2013 05:00 16,1 C 14,1 C 94 % 1016,6 hPa 0,0 l/m 0,00 h 0,00 h 0,0 UV-I 0 W/m 0,0 km/h (0 Bft)
01.08.2013 06:00 16,2 C 14,1 C 96 % 1016,4 hPa 0,0 l/m 0,00 h 0,00 h 0,0 UV-I 15 W/m 0,0 km/h (0 Bft)
01.08.2013 07:00 16,6 C 15,0 C 97 % 1016,4 hPa 0,0 l/m 0,00 h 0,00 h 0,0 UV-I 33 W/m 0,0 km/h (0 Bft)
01.08.2013 08:00 18,0 C 16,4 C 95 % 1016,3 hPa 0,0 l/m 0,63 h 0,00 h 0,6 UV-I 222 W/m 4,8 km/h (1 Bft)
01.08.2013 09:00 22,2 C 19,7 C 81 % 1016,2 hPa 0,0 l/m 1,00 h 0,00 h 1,3 UV-I 439 W/m 6,2 km/h (2 Bft)
01.08.2013 10:00 25,4 C 29,2 C 72 % 1016,0 hPa 0,0 l/m 1,00 h 0,00 h 2,6 UV-I 574 W/m 10,7 km/h (2 Bft)
01.08.2013 11:00 27,7 C 30,1 C 66 % 1015,4 hPa 0,0 l/m 0,97 h 0,00 h 3,9 UV-I 682 W/m 17,5 km/h (3 Bft)
01.08.2013 12:00 29,4 C 32,0 C 61 % 1015,1 hPa 0,0 l/m 1,00 h 0,00 h 4,9 UV-I 754 W/m 18,0 km/h (3 Bft)
01.08.2013 13:00 30,6 C 29,4 C 55 % 1014,7 hPa 0,0 l/m 0,97 h 0,00 h 2,8 UV-I 788 W/m 18,0 km/h (3 Bft)
01.08.2013 14:00 31,9 C 30,3 C 50 % 1014,0 hPa 0,0 l/m 0,97 h 0,00 h 5,2 UV-I 778 W/m 13,8 km/h (3 Bft)
01.08.2013 15:00 32,9 C 30,6 C 49 % 1013,4 hPa 0,0 l/m 0,97 h 0,00 h 4,5 UV-I 724 W/m 17,7 km/h (3 Bft)
01.08.2013 16:00 33,2 C 31,3 C 48 % 1013,0 hPa 0,0 l/m 0,97 h 0,00 h 3,3 UV-I 625 W/m 21,3 km/h (4 Bft)
01.08.2013 17:00 32,8 C 29,3 C 48 % 1012,5 hPa 0,0 l/m 0,97 h 0,00 h 2,1 UV-I 494 W/m 23,1 km/h (4 Bft)
01.08.2013 18:00 32,1 C 28,5 C 49 % 1012,1 hPa 0,0 l/m 0,33 h 0,00 h 1,1 UV-I 182 W/m 15,6 km/h (3 Bft)
01.08.2013 19:00 31,2 C 27,1 C 50 % 1011,9 hPa 0,0 l/m 0,00 h 0,00 h 0,0 UV-I 28 W/m 14,1 km/h (3 Bft)
01.08.2013 20:00 29,6 C 25,1 C 53 % 1011,9 hPa 0,0 l/m 0,00 h 0,00 h 0,0 UV-I 18 W/m 5,4 km/h (1 Bft)
01.08.2013 21:00 27,3 C 22,4 C 58 % 1012,1 hPa 0,0 l/m 0,00 h 0,00 h 0,0 UV-I 9 W/m 1,3 km/h (1 Bft)
01.08.2013 22:00 24,4 C 20,1 C 68 % 1012,2 hPa 0,0 l/m 0,00 h 0,00 h 0,0 UV-I 0 W/m 0,0 km/h (0 Bft)
01.08.2013 23:00 23,2 C 18,8 C 69 % 1012,3 hPa 0,0 l/m 0,00 h 0,00 h 0,0 UV-I 0 W/m 0,0 km/h (0 Bft)
02.08.2013 00:00 22,1 C 18,1 C 73 % 1012,3 hPa 0,0 l/m 0,00 h 0,00 h 0,0 UV-I 0 W/m 0,0 km/h (0 Bft)
02.08.2013 01:00 21,7 C 18,1 C 75 % 1012,3 hPa 0,0 l/m 0,00 h 0,00 h 0,0 UV-I 0 W/m 0,0 km/h (0 Bft)
02.08.2013 02:00 20,6 C 17,4 C 79 % 1012,0 hPa 0,0 l/m 0,00 h 0,00 h 0,0 UV-I 0 W/m 0,0 km/h (0 Bft)
02.08.2013 03:00 20,1 C 17,4 C 81 % 1011,5 hPa 0,0 l/m 0,00 h 0,00 h 0,0 UV-I 0 W/m 0,0 km/h (0 Bft)
02.08.2013 04:00 19,7 C 16,9 C 82 % 1011,1 hPa 0,0 l/m 0,00 h 0,00 h 0,0 UV-I 0 W/m 0,0 km/h (0 Bft)
02.08.2013 05:00 19,4 C 16,9 C 82 % 1011,1 hPa 0,0 l/m 0,00 h 0,00 h 0,0 UV-I 0 W/m 0,0 km/h (0 Bft)
02.08.2013 06:00 19,1 C 16,5 C 84 % 1011,2 hPa 0,0 l/m 0,00 h 0,00 h 0,0 UV-I 15 W/m 0,0 km/h (0 Bft)
02.08.2013 07:00 20,2 C 17,8 C 81 % 1011,3 hPa 0,0 l/m 0,00 h 0,00 h 0,0 UV-I 30 W/m 1,6 km/h (1 Bft)
02.08.2013 08:00 22,6 C 19,9 C 76 % 1011,4 hPa 0,0 l/m 0,63 h 0,00 h 0,6 UV-I 224 W/m 6,7 km/h (2 Bft)
02.08.2013 09:00 26,0 C 23,3 C 68 % 1011,4 hPa 0,0 l/m 0,97 h 0,00 h 1,3 UV-I 432 W/m 6,5 km/h (2 Bft)
02.08.2013 10:00 29,2 C 32,5 C 62 % 1011,3 hPa 0,0 l/m 0,97 h 0,00 h 2,5 UV-I 566 W/m 15,3 km/h (3 Bft)
02.08.2013 11:00 31,8 C 33,8 C 57 % 1011,1 hPa 0,0 l/m 0,97 h 0,00 h 3,7 UV-I 672 W/m 19,6 km/h (3 Bft)
02.08.2013 12:00 33,7 C 35,7 C 52 % 1010,7 hPa 0,0 l/m 0,97 h 0,00 h 4,6 UV-I 743 W/m 26,4 km/h (4 Bft)
02.08.2013 13:00 35,3 C 33,6 C 46 % 1010,2 hPa 0,0 l/m 0,97 h 0,00 h 3,1 UV-I 776 W/m 28,8 km/h (5 Bft)
02.08.2013 14:00 36,1 C 33,8 C 43 % 1009,7 hPa 0,0 l/m 0,97 h 0,00 h 4,9 UV-I 762 W/m 33,9 km/h (5 Bft)
02.08.2013 15:00 36,6 C 34,1 C 42 % 1009,2 hPa 0,0 l/m 0,97 h 0,00 h 4,1 UV-I 694 W/m 35,9 km/h (5 Bft)
02.08.2013 16:00 37,2 C 35,0 C 38 % 1008,9 hPa 0,0 l/m 0,97 h 0,00 h 3,1 UV-I 591 W/m 28,3 km/h (4 Bft)
02.08.2013 17:00 36,9 C 33,4 C 36 % 1008,8 hPa 0,0 l/m 0,90 h 0,00 h 2,1 UV-I 418 W/m 26,5 km/h (4 Bft)
02.08.2013 18:00 35,4 C 31,8 C 36 % 1008,7 hPa 0,0 l/m 0,13 h 0,00 h 1,0 UV-I 158 W/m 19,6 km/h (3 Bft)
02.08.2013 19:00 34,4 C 30,6 C 40 % 1008,4 hPa 0,0 l/m 0,03 h 0,00 h 0,7 UV-I 87 W/m 14,4 km/h (3 Bft)
02.08.2013 20:00 32,7 C 28,7 C 40 % 1008,3 hPa 0,0 l/m 0,00 h 0,00 h 0,0 UV-I 25 W/m 21,6 km/h (4 Bft)
02.08.2013 21:00 30,5 C 26,2 C 45 % 1008,6 hPa 0,0 l/m 0,00 h 0,00 h 0,0 UV-I 9 W/m 9,7 km/h (2 Bft)
02.08.2013 22:00 28,8 C 24,7 C 51 % 1009,0 hPa 0,0 l/m 0,00 h 0,00 h 0,0 UV-I 0 W/m 3,6 km/h (1 Bft)
02.08.2013 23:00 27,5 C 23,6 C 55 % 1009,1 hPa 0,0 l/m 0,00 h 0,00 h 0,0 UV-I 0 W/m 1,4 km/h (1 Bft)
03.08.2013 00:00 26,9 C 22,7 C 59 % 1009,7 hPa 0,0 l/m 0,00 h 0,00 h 0,0 UV-I 0 W/m 0,0 km/h (0 Bft)
03.08.2013 01:00 25,7 C 22,3 C 70 % 1010,9 hPa 0,0 l/m 0,00 h 0,00 h 0,0 UV-I 0 W/m 14,5 km/h (3 Bft)
03.08.2013 02:00 24,1 C 21,1 C 75 % 1011,3 hPa 0,0 l/m 0,00 h 0,00 h 0,0 UV-I 0 W/m 1,9 km/h (1 Bft)
03.08.2013 03:00 22,9 C 20,2 C 79 % 1012,4 hPa 0,0 l/m 0,00 h 0,00 h 0,0 UV-I 0 W/m 10,5 km/h (2 Bft)
03.08.2013 04:00 22,1 C 19,5 C 80 % 1013,1 hPa 0,0 l/m 0,00 h 0,37 h 0,0 UV-I 0 W/m 5,0 km/h (1 Bft)
03.08.2013 05:00 21,4 C 17,4 C 86 % 1014,6 hPa 1,2 l/m 0,00 h 0,93 h 0,0 UV-I 0 W/m 1,3 km/h (1 Bft)
03.08.2013 06:00 20,3 C 17,3 C 92 % 1013,7 hPa 0,4 l/m 0,00 h 0,70 h 0,0 UV-I 17 W/m 5,0 km/h (1 Bft)
03.08.2013 07:00 19,6 C 17,2 C 96 % 1014,0 hPa 0,0 l/m 0,00 h 0,03 h 0,0 UV-I 47 W/m 2,1 km/h (1 Bft)
03.08.2013 08:00 20,3 C 17,9 C 96 % 1014,7 hPa 0,0 l/m 0,07 h 0,00 h 0,0 UV-I 108 W/m 8,0 km/h (2 Bft)
03.08.2013 09:00 21,7 C 19,4 C 88 % 1015,3 hPa 0,0 l/m 0,73 h 0,00 h 0,9 UV-I 361 W/m 19,1 km/h (3 Bft)
03.08.2013 10:00 22,8 C 23,2 C 83 % 1015,9 hPa 0,0 l/m 0,43 h 0,00 h 1,7 UV-I 395 W/m 22,0 km/h (4 Bft)
03.08.2013 11:00 24,6 C 25,8 C 72 % 1016,7 hPa 0,0 l/m 0,87 h 0,00 h 3,5 UV-I 672 W/m 24,7 km/h (4 Bft)
03.08.2013 12:00 25,5 C 27,7 C 61 % 1017,3 hPa 0,0 l/m 0,97 h 0,00 h 4,5 UV-I 790 W/m 28,7 km/h (4 Bft)
03.08.2013 13:00 26,0 C 25,6 C 59 % 1017,5 hPa 0,0 l/m 0,83 h 0,00 h 2,6 UV-I 677 W/m 24,6 km/h (4 Bft)
03.08.2013 14:00 26,6 C 25,9 C 55 % 1018,0 hPa 0,0 l/m 0,60 h 0,00 h 4,3 UV-I 675 W/m 23,7 km/h (4 Bft)
03.08.2013 15:00 27,0 C 26,2 C 52 % 1018,4 hPa 0,0 l/m 0,93 h 0,00 h 3,8 UV-I 730 W/m 19,6 km/h (3 Bft)
03.08.2013 16:00 26,8 C 25,9 C 49 % 1018,7 hPa 0,0 l/m 0,97 h 0,00 h 2,9 UV-I 665 W/m 23,6 km/h (4 Bft)
03.08.2013 17:00 26,2 C 24,2 C 49 % 1018,9 hPa 0,0 l/m 0,93 h 0,00 h 1,7 UV-I 516 W/m 18,2 km/h (3 Bft)
03.08.2013 18:00 25,7 C 23,2 C 51 % 1019,0 hPa 0,0 l/m 0,37 h 0,00 h 0,7 UV-I 192 W/m 11,0 km/h (2 Bft)
03.08.2013 19:00 24,5 C 21,7 C 53 % 1019,3 hPa 0,0 l/m 0,00 h 0,00 h 0,0 UV-I 45 W/m 5,3 km/h (1 Bft)
03.08.2013 20:00 23,2 C 20,3 C 57 % 1019,5 hPa 0,0 l/m 0,00 h 0,00 h 0,0 UV-I 28 W/m 0,1 km/h (0 Bft)
03.08.2013 21:00 21,1 C 17,5 C 65 % 1020,2 hPa 0,0 l/m 0,00 h 0,00 h 0,0 UV-I 9 W/m 0,0 km/h (0 Bft)
03.08.2013 22:00 19,4 C 16,7 C 71 % 1020,7 hPa 0,0 l/m 0,00 h 0,00 h 0,0 UV-I 0 W/m 0,0 km/h (0 Bft)
03.08.2013 23:00 18,1 C 16,0 C 77 % 1021,0 hPa 0,0 l/m 0,00 h 0,00 h 0,0 UV-I 0 W/m 0,0 km/h (0 Bft)
04.08.2013 00:00 17,1 C 15,3 C 83 % 1021,3 hPa 0,0 l/m 0,00 h 0,00 h 0,0 UV-I 0 W/m 0,0 km/h (0 Bft)
04.08.2013 01:00 16,2 C 14,7 C 87 % 1021,2 hPa 0,0 l/m 0,00 h 0,00 h 0,0 UV-I 0 W/m 0,0 km/h (0 Bft)
04.08.2013 02:00 15,6 C 14,1 C 89 % 1021,1 hPa 0,0 l/m 0,00 h 0,00 h 0,0 UV-I 0 W/m 0,0 km/h (0 Bft)
04.08.2013 03:00 15,0 C 13,5 C 90 % 1020,9 hPa 0,0 l/m 0,00 h 0,00 h 0,0 UV-I 0 W/m 0,0 km/h (0 Bft)
04.08.2013 04:00 14,3 C 13,0 C 93 % 1020,8 hPa 0,0 l/m 0,00 h 0,00 h 0,0 UV-I 0 W/m 0,0 km/h (0 Bft)
04.08.2013 05:00 14,0 C 12,9 C 94 % 1020,8 hPa 0,0 l/m 0,00 h 0,00 h 0,0 UV-I 0 W/m 0,0 km/h (0 Bft)
04.08.2013 06:00 13,9 C 12,9 C 96 % 1020,9 hPa 0,0 l/m 0,00 h 0,00 h 0,0 UV-I 12 W/m 0,0 km/h (0 Bft)
04.08.2013 07:00 15,0 C 13,6 C 96 % 1021,2 hPa 0,0 l/m 0,00 h 0,00 h 0,0 UV-I 31 W/m 0,0 km/h (0 Bft)
04.08.2013 08:00 18,1 C 16,3 C 85 % 1021,4 hPa 0,0 l/m 0,60 h 0,00 h 0,5 UV-I 208 W/m 0,0 km/h (0 Bft)
04.08.2013 09:00 21,9 C 20,3 C 72 % 1021,6 hPa 0,0 l/m 0,97 h 0,00 h 1,1 UV-I 429 W/m 0,0 km/h (0 Bft)
04.08.2013 10:00 24,7 C 29,8 C 60 % 1021,4 hPa 0,0 l/m 0,97 h 0,00 h 2,2 UV-I 569 W/m 0,0 km/h (0 Bft)
04.08.2013 11:00 25,8 C 29,3 C 53 % 1021,2 hPa 0,0 l/m 0,97 h 0,00 h 3,2 UV-I 673 W/m 0,0 km/h (0 Bft)
04.08.2013 12:00 26,7 C 29,7 C 49 % 1021,2 hPa 0,0 l/m 0,50 h 0,00 h 3,1 UV-I 509 W/m 6,2 km/h (2 Bft)
04.08.2013 13:00 26,8 C 27,2 C 48 % 1020,7 hPa 0,0 l/m 0,63 h 0,00 h 2,4 UV-I 663 W/m 5,8 km/h (2 Bft)
04.08.2013 14:00 27,7 C 27,5 C 44 % 1020,3 hPa 0,0 l/m 0,63 h 0,00 h 3,7 UV-I 608 W/m 5,9 km/h (2 Bft)
04.08.2013 15:00 28,4 C 28,1 C 42 % 1019,9 hPa 0,0 l/m 0,90 h 0,00 h 3,6 UV-I 758 W/m 6,9 km/h (2 Bft)
04.08.2013 16:00 28,3 C 28,0 C 43 % 1019,6 hPa 0,0 l/m 0,77 h 0,00 h 2,4 UV-I 563 W/m 5,8 km/h (2 Bft)
04.08.2013 17:00 27,5 C 26,4 C 43 % 1019,2 hPa 0,0 l/m 0,60 h 0,00 h 1,4 UV-I 359 W/m 2,5 km/h (1 Bft)
04.08.2013 18:00 27,3 C 25,3 C 44 % 1019,0 hPa 0,0 l/m 0,27 h 0,00 h 0,7 UV-I 170 W/m 3,2 km/h (1 Bft)
04.08.2013 19:00 26,6 C 24,0 C 47 % 1019,0 hPa 0,0 l/m 0,00 h 0,00 h 0,0 UV-I 38 W/m 1,5 km/h (1 Bft)
04.08.2013 20:00 24,8 C 21,9 C 56 % 1019,0 hPa 0,0 l/m 0,00 h 0,00 h 0,0 UV-I 20 W/m 0,0 km/h (0 Bft)
04.08.2013 21:00 22,1 C 19,2 C 66 % 1019,3 hPa 0,0 l/m 0,00 h 0,00 h 0,0 UV-I 6 W/m 0,0 km/h (0 Bft)
04.08.2013 22:00 20,4 C 17,8 C 71 % 1019,4 hPa 0,0 l/m 0,00 h 0,00 h 0,0 UV-I 0 W/m 0,0 km/h (0 Bft)
04.08.2013 23:00 19,3 C 17,0 C 74 % 1019,4 hPa 0,0 l/m 0,00 h 0,00 h 0,0 UV-I 0 W/m 0,0 km/h (0 Bft)
Min-Datum _ 04.08.13 04.08.13 02.08.13 02.08.13 - - - - - 29.07.13
_ Min-Zeit 06:48 04:18 16:42 20:10 - - - - - 00:00
Minimum _ 13,7 C 12,9 C 34 % 1008,2 hPa - - - - - 0,0 km/h (0 Bft)
Max-Datum _ 02.08.13 02.08.13 31.07.13 04.08.13 31.07.13 29.07.13 30.07.13 31.07.13 31.07.13 02.08.13
_ Max-Zeit 17:00 11:56 07:02 09:50 05:06 09:06 20:28 15:08 13:56 15:36
Maximum _ 37,7 C 36,3 C 98 % 1021,8 hPa 7,2 l/m 0,03 h 0,03 h 5,5 UV-I 1151 W/m 53,6 km/h
S-SO (7 Bft)
Durchschnitt _ 22,6 C 21,3 C 73 % 1015,7 hPa #18,6 l/m #49:15 h #6:47 h 2,3 UV-I 327 W/m 8,1 km/h (2 Bft)
© 2013 W. Hausmann